Terminal Aerodrome Forecast
Issued by NWS Burlington, VT

Home | Current Version | Previous Version | Text Only | Print | Product List | Glossary On
Versions: 1 2 3 4 5 6 7 8 9 10 11
610
FTUS41 KBTV 241131
TAFBTV
TAF
KBTV 241131Z 2412/2512 16005KT P6SM -SHRA OVC060
      TEMPO 2412/2416 4SM SHRA BR OVC040
     FM241600 12007KT 5SM SHRA BR OVC028
     FM242100 10008KT P6SM -SHRA OVC025
     FM250600 VRB04KT 4SM -SHRA BR OVC015=

USA.gov is the U.S. government's official web portal to all federal, state and local government web resources and services.